Time;durP1;ratioP1;P1;durP2;ratioP2;P2;SDS_P1;SDS_P2;PMS_P1;PMS_P2;Temp;Humidity;BMP_temperature;BMP_pressure;BME280_temperature;BME280_humidity;BME280_pressure;Samples;Min_cycle;Max_cycle;Signal;HPM_P1;HPM_P2
2023/08/29 00:00:54;;;;;;;4.20;2.95;;;15.40;99.90;;;;;;5019655;28;20045;-79
2023/08/29 00:03:21;;;;;;;5.38;2.85;;;15.40;99.90;;;;;;4997034;28;20108;-79
2023/08/29 00:05:48;;;;;;;3.92;2.60;;;15.40;99.90;;;;;;5012218;28;20046;-79
2023/08/29 00:08:15;;;;;;;4.05;3.00;;;15.40;99.90;;;;;;5000205;28;20053;-79
2023/08/29 00:10:43;;;;;;;5.40;3.03;;;15.40;99.90;;;;;;5015106;28;20054;-80
2023/08/29 00:13:10;;;;;;;3.28;2.70;;;15.40;99.90;;;;;;5010684;28;20053;-79
2023/08/29 00:15:36;;;;;;;4.18;3.05;;;15.40;99.90;;;;;;5015388;28;20100;-79
2023/08/29 00:18:03;;;;;;;4.82;3.70;;;15.40;99.90;;;;;;5013426;28;20128;-79
2023/08/29 00:20:31;;;;;;;5.15;3.22;;;15.40;99.90;;;;;;5010965;28;20073;-79
2023/08/29 00:22:57;;;;;;;3.13;2.65;;;15.30;99.90;;;;;;5015892;28;20045;-79
2023/08/29 00:25:24;;;;;;;3.15;2.55;;;15.40;99.90;;;;;;5009250;28;20057;-79
2023/08/29 00:27:51;;;;;;;3.83;3.17;;;15.40;99.90;;;;;;5011306;28;20124;-79
2023/08/29 00:30:17;;;;;;;5.35;3.22;;;15.30;99.90;;;;;;5015990;28;20046;-79
2023/08/29 00:32:44;;;;;;;3.88;3.50;;;15.30;99.90;;;;;;5017269;28;20490;-79
2023/08/29 00:35:11;;;;;;;6.30;4.45;;;15.40;99.90;;;;;;5014012;28;20048;-79
2023/08/29 00:37:38;;;;;;;4.45;3.80;;;15.40;99.90;;;;;;5016018;28;20045;-79
2023/08/29 00:40:05;;;;;;;5.00;4.55;;;15.40;99.90;;;;;;5018635;28;20042;-79
2023/08/29 00:42:31;;;;;;;4.18;3.65;;;15.30;99.90;;;;;;5009071;28;20104;-80
2023/08/29 00:44:58;;;;;;;6.45;4.15;;;15.20;99.90;;;;;;5010378;28;20061;-78
2023/08/29 00:47:25;;;;;;;5.03;3.95;;;15.20;99.90;;;;;;5013703;28;20077;-79
2023/08/29 00:49:53;;;;;;;4.90;3.88;;;15.20;99.90;;;;;;5014997;28;20071;-79
2023/08/29 00:52:19;;;;;;;3.78;3.45;;;15.30;99.90;;;;;;4996836;28;20054;-79
2023/08/29 00:54:47;;;;;;;4.57;3.70;;;15.30;99.90;;;;;;5001656;28;20053;-79
2023/08/29 00:57:13;;;;;;;5.07;3.55;;;15.30;99.90;;;;;;5003456;28;20047;-78
2023/08/29 00:59:41;;;;;;;4.93;3.75;;;15.30;99.90;;;;;;5012200;28;20120;-78
2023/08/29 01:02:07;;;;;;;4.78;3.53;;;15.30;99.90;;;;;;5017496;28;20398;-79
2023/08/29 01:04:34;;;;;;;7.05;4.00;;;15.30;99.90;;;;;;4996016;28;20110;-79
2023/08/29 01:07:01;;;;;;;5.28;3.67;;;15.30;99.90;;;;;;4996488;28;20053;-78
2023/08/29 01:09:28;;;;;;;4.88;3.50;;;15.30;99.90;;;;;;5021333;28;20081;-79
2023/08/29 01:12:02;;;;;;;4.82;3.15;;;15.30;99.90;;;;;;5013110;28;20430;-79
2023/08/29 01:14:58;;;;;;;5.35;3.50;;;15.20;99.90;;;;;;5009183;28;20560;-79
2023/08/29 01:17:33;;;;;;;4.10;3.10;;;15.20;99.90;;;;;;5021290;28;20046;-79
2023/08/29 01:20:02;;;;;;;4.72;3.38;;;15.30;99.90;;;;;;5015068;28;20137;-79
2023/08/29 01:22:46;;;;;;;7.60;2.70;;;15.30;99.90;;;;;;5015163;28;20042;-80
2023/08/29 01:25:29;;;;;;;5.90;2.67;;;15.30;99.90;;;;;;5016603;28;20065;-79
2023/08/29 01:27:56;;;;;;;3.53;2.78;;;15.30;99.90;;;;;;5008738;28;20058;-79
2023/08/29 01:30:24;;;;;;;2.88;2.30;;;15.30;99.90;;;;;;5015056;28;20042;-79
2023/08/29 01:32:52;;;;;;;3.22;2.13;;;15.30;99.90;;;;;;5020645;28;20073;-79
2023/08/29 01:35:19;;;;;;;4.60;2.40;;;15.30;99.90;;;;;;5013260;28;20062;-79
2023/08/29 01:37:45;;;;;;;3.38;2.85;;;15.30;99.90;;;;;;5018885;28;20042;-79
2023/08/29 01:40:12;;;;;;;3.58;2.67;;;15.30;99.90;;;;;;5021510;28;20065;-79
2023/08/29 01:42:39;;;;;;;3.38;2.50;;;15.30;99.90;;;;;;4990314;28;20053;-79
2023/08/29 01:45:06;;;;;;;2.25;2.03;;;15.20;99.90;;;;;;5013260;28;20103;-79
2023/08/29 01:47:33;;;;;;;3.50;2.22;;;15.10;99.90;;;;;;5018073;28;20081;-79
2023/08/29 01:50:04;;;;;;;2.35;2.15;;;15.00;99.90;;;;;;5012913;28;20445;-79
2023/08/29 01:52:31;;;;;;;2.63;1.98;;;15.00;99.90;;;;;;5012600;28;20054;-79
2023/08/29 01:54:58;;;;;;;2.17;1.95;;;15.00;99.90;;;;;;5017858;28;20068;-79
2023/08/29 01:57:27;;;;;;;2.70;2.25;;;15.00;99.90;;;;;;5008419;28;20049;-79
2023/08/29 01:59:55;;;;;;;2.33;2.08;;;15.00;99.90;;;;;;5006602;28;20069;-78
2023/08/29 02:02:22;;;;;;;2.05;1.85;;;15.00;99.90;;;;;;4998186;28;20046;-79
2023/08/29 02:04:48;;;;;;;2.00;1.35;;;15.00;99.90;;;;;;5011215;28;20488;-78
2023/08/29 02:07:15;;;;;;;2.90;1.60;;;15.00;99.90;;;;;;4993936;28;20426;-79
2023/08/29 02:09:42;;;;;;;1.92;1.40;;;15.00;99.90;;;;;;5019427;28;20053;-79
2023/08/29 02:12:09;;;;;;;2.47;1.90;;;15.00;99.90;;;;;;5009846;28;20046;-79
2023/08/29 02:14:35;;;;;;;4.43;1.90;;;15.10;99.90;;;;;;5013626;28;20086;-79
2023/08/29 02:17:03;;;;;;;3.67;1.88;;;15.10;99.90;;;;;;5020175;28;20065;-79
2023/08/29 02:19:30;;;;;;;3.08;1.70;;;15.10;99.90;;;;;;5008236;28;20060;-79
2023/08/29 02:21:57;;;;;;;2.80;1.75;;;15.10;99.90;;;;;;5013001;28;20046;-79
2023/08/29 02:24:23;;;;;;;2.45;1.73;;;15.10;99.90;;;;;;5016182;28;20041;-78
2023/08/29 02:26:50;;;;;;;5.47;1.70;;;15.10;99.90;;;;;;5013689;28;20399;-77
2023/08/29 02:29:17;;;;;;;2.10;1.80;;;15.20;99.90;;;;;;5014014;28;20062;-79
2023/08/29 02:31:44;;;;;;;2.67;2.08;;;15.20;99.90;;;;;;5017464;28;20581;-78
2023/08/29 02:34:10;;;;;;;1.92;1.65;;;15.20;99.90;;;;;;5014185;28;20046;-78
2023/08/29 02:36:37;;;;;;;7.55;1.80;;;15.20;99.90;;;;;;5010294;28;20050;-78
2023/08/29 02:39:04;;;;;;;2.13;1.92;;;15.20;99.90;;;;;;5016386;28;20444;-77
2023/08/29 02:41:30;;;;;;;3.97;1.80;;;15.20;99.90;;;;;;4997317;28;20119;-79
2023/08/29 02:43:57;;;;;;;1.50;1.40;;;15.20;99.90;;;;;;5018425;28;20057;-79
2023/08/29 02:46:24;;;;;;;1.90;1.70;;;15.20;99.90;;;;;;5020007;28;20054;-78
2023/08/29 02:48:51;;;;;;;1.95;1.67;;;15.20;99.90;;;;;;5018018;28;20422;-78
2023/08/29 02:51:18;;;;;;;2.65;1.67;;;15.20;99.90;;;;;;5009985;28;20050;-77
2023/08/29 02:53:44;;;;;;;2.83;1.50;;;15.20;99.90;;;;;;5016166;28;20057;-79
2023/08/29 02:56:11;;;;;;;3.65;1.70;;;15.20;99.90;;;;;;5017597;28;20391;-77
2023/08/29 02:58:38;;;;;;;2.58;1.33;;;15.20;99.90;;;;;;5010958;28;20109;-78
2023/08/29 03:01:09;;;;;;;2.35;1.65;;;15.20;99.90;;;;;;5014501;28;20041;-79
2023/08/29 03:03:36;;;;;;;3.22;1.50;;;15.20;99.90;;;;;;5013463;28;20084;-79
2023/08/29 03:06:03;;;;;;;3.53;1.60;;;15.20;99.90;;;;;;4991290;28;20080;-78
2023/08/29 03:08:30;;;;;;;1.50;1.40;;;15.20;99.90;;;;;;5011521;28;20050;-77
2023/08/29 03:11:03;;;;;;;1.70;1.40;;;15.20;99.90;;;;;;5001479;28;20131;-79
2023/08/29 03:13:31;;;;;;;3.63;1.30;;;15.20;99.90;;;;;;5011243;28;20066;-79
2023/08/29 03:15:59;;;;;;;1.17;0.90;;;15.20;99.90;;;;;;5017472;28;20046;-77
2023/08/29 03:18:27;;;;;;;1.80;1.10;;;15.20;99.90;;;;;;5023836;28;20057;-79
2023/08/29 03:20:54;;;;;;;2.83;1.23;;;15.20;99.90;;;;;;4995154;28;20046;-77
2023/08/29 03:23:21;;;;;;;4.07;1.58;;;15.20;99.90;;;;;;5007934;28;20529;-78
2023/08/29 03:25:47;;;;;;;2.47;1.20;;;15.20;99.90;;;;;;5013605;28;20119;-77
2023/08/29 03:28:14;;;;;;;3.53;1.30;;;15.20;99.90;;;;;;5008279;28;20129;-83
2023/08/29 03:30:42;;;;;;;2.25;1.55;;;15.10;99.90;;;;;;5005571;28;20049;-77
2023/08/29 03:33:08;;;;;;;2.05;1.30;;;15.10;99.90;;;;;;5010874;28;20464;-77
2023/08/29 03:35:36;;;;;;;3.35;1.40;;;15.10;99.90;;;;;;5001374;28;20085;-76
2023/08/29 03:38:02;;;;;;;2.17;1.40;;;15.10;99.90;;;;;;5005246;28;20071;-78
2023/08/29 03:40:30;;;;;;;2.08;1.33;;;15.10;99.90;;;;;;5010999;28;20524;-76
2023/08/29 03:42:57;;;;;;;2.90;1.42;;;15.10;99.90;;;;;;5004377;28;20046;-76
2023/08/29 03:45:23;;;;;;;2.67;1.33;;;15.10;99.90;;;;;;5005764;28;20497;-78
2023/08/29 03:47:50;;;;;;;2.08;1.17;;;15.10;99.90;;;;;;4993166;28;20572;-77
2023/08/29 03:50:17;;;;;;;1.30;1.15;;;15.10;99.90;;;;;;5002352;28;20513;-77
2023/08/29 03:52:47;;;;;;;3.67;1.50;;;15.10;99.90;;;;;;5003677;28;20054;-77
2023/08/29 03:55:14;;;;;;;3.38;1.40;;;15.10;99.90;;;;;;4995303;28;20568;-77
2023/08/29 03:57:41;;;;;;;2.47;1.20;;;15.10;99.90;;;;;;4999637;28;20054;-76
2023/08/29 04:00:10;;;;;;;2.13;1.30;;;15.10;99.90;;;;;;5005343;28;20722;-77
2023/08/29 04:02:38;;;;;;;6.15;1.27;;;15.10;99.90;;;;;;5008231;28;20089;-76
2023/08/29 04:05:14;;;;;;;2.33;1.38;;;15.10;99.90;;;;;;4989049;28;20519;-76
2023/08/29 04:07:42;;;;;;;3.03;1.40;;;15.10;99.90;;;;;;5000547;28;20046;-77
2023/08/29 04:10:09;;;;;;;1.65;1.50;;;15.10;99.90;;;;;;5011179;28;20054;-76
2023/08/29 04:12:36;;;;;;;1.98;1.30;;;15.10;99.90;;;;;;5006198;28;20523;-77
2023/08/29 04:15:03;;;;;;;1.40;1.30;;;15.10;99.90;;;;;;4987460;28;20050;-77
2023/08/29 04:17:30;;;;;;;2.47;1.40;;;15.10;99.90;;;;;;5009080;28;20108;-77
2023/08/29 04:19:58;;;;;;;3.92;2.33;;;15.10;99.90;;;;;;5007362;28;20046;-76
2023/08/29 04:22:24;;;;;;;3.53;1.83;;;15.10;99.90;;;;;;5003515;28;20100;-77
2023/08/29 04:24:51;;;;;;;4.40;1.20;;;15.10;99.90;;;;;;5008305;28;20119;-78
2023/08/29 04:27:18;;;;;;;5.88;1.83;;;15.00;99.90;;;;;;4990756;28;20669;-78
2023/08/29 04:29:45;;;;;;;2.05;1.40;;;15.00;99.90;;;;;;5001058;28;20085;-78
2023/08/29 04:32:12;;;;;;;2.72;1.45;;;15.00;99.90;;;;;;5010623;28;20096;-78
2023/08/29 04:34:39;;;;;;;3.00;1.35;;;15.00;99.90;;;;;;4993118;28;20109;-78
2023/08/29 04:37:05;;;;;;;2.03;1.35;;;15.00;99.90;;;;;;5001160;28;20104;-77
2023/08/29 04:39:32;;;;;;;3.03;1.20;;;15.00;99.90;;;;;;5009562;28;20050;-77
2023/08/29 04:41:59;;;;;;;4.72;1.52;;;14.90;99.90;;;;;;4993366;28;20042;-78
2023/08/29 04:44:26;;;;;;;2.05;1.20;;;15.00;99.90;;;;;;5000749;28;20057;-76
2023/08/29 04:46:54;;;;;;;3.65;2.47;;;15.00;99.90;;;;;;5006017;28;20521;-77
2023/08/29 04:49:21;;;;;;;4.65;2.40;;;15.00;99.90;;;;;;5003825;28;20054;-76
2023/08/29 04:51:48;;;;;;;1.88;1.70;;;15.00;99.90;;;;;;4998570;28;20050;-76
2023/08/29 04:54:15;;;;;;;3.35;1.40;;;14.90;99.90;;;;;;5008652;28;20049;-77
2023/08/29 04:56:42;;;;;;;2.83;1.30;;;14.90;99.90;;;;;;5009795;28;20042;-76
2023/08/29 04:59:08;;;;;;;1.20;1.10;;;14.90;99.90;;;;;;4999729;28;20050;-77
2023/08/29 05:01:36;;;;;;;3.70;1.30;;;14.90;99.90;;;;;;5007953;28;20054;-77
2023/08/29 05:04:04;;;;;;;3.35;1.30;;;14.90;99.90;;;;;;5009191;28;20564;-79
2023/08/29 05:06:30;;;;;;;1.23;1.13;;;14.90;99.90;;;;;;5008371;28;20062;-77
2023/08/29 05:08:57;;;;;;;6.25;1.48;;;14.90;99.90;;;;;;5009683;28;20049;-78
2023/08/29 05:11:24;;;;;;;2.03;1.20;;;14.90;99.90;;;;;;5014086;28;20072;-78
2023/08/29 05:13:50;;;;;;;1.83;1.33;;;14.90;99.90;;;;;;5004677;28;20430;-77
2023/08/29 05:16:17;;;;;;;1.58;1.23;;;14.90;99.90;;;;;;5004833;28;20046;-77
2023/08/29 05:18:44;;;;;;;2.15;1.45;;;14.90;99.90;;;;;;5012006;28;20052;-78
2023/08/29 05:21:10;;;;;;;3.58;1.60;;;14.90;99.90;;;;;;5009661;28;20053;-77
2023/08/29 05:23:37;;;;;;;3.17;1.38;;;14.90;99.90;;;;;;5006726;28;20054;-77
2023/08/29 05:26:04;;;;;;;1.42;1.20;;;14.90;99.90;;;;;;5015005;28;20668;-77
2023/08/29 05:28:31;;;;;;;1.70;1.40;;;14.80;99.90;;;;;;5014817;28;20069;-79
2023/08/29 05:30:58;;;;;;;2.10;1.40;;;14.90;99.90;;;;;;5012321;28;20101;-78
2023/08/29 05:33:24;;;;;;;1.48;1.33;;;14.90;99.90;;;;;;5017172;28;20122;-78
2023/08/29 05:35:51;;;;;;;1.98;1.30;;;14.90;99.90;;;;;;5013828;28;20042;-77
2023/08/29 05:38:18;;;;;;;1.88;1.23;;;14.90;99.90;;;;;;5013994;28;20088;-78
2023/08/29 05:40:50;;;;;;;1.60;1.50;;;14.90;99.90;;;;;;5014137;28;20069;-77
2023/08/29 05:43:17;;;;;;;2.40;1.80;;;14.90;99.90;;;;;;5011469;28;20249;-76
2023/08/29 05:45:44;;;;;;;4.38;2.85;;;14.90;99.90;;;;;;5005452;28;20058;-78
2023/08/29 05:48:11;;;;;;;2.45;1.40;;;14.90;99.90;;;;;;5014409;28;20123;-77
2023/08/29 05:50:41;;;;;;;1.63;1.15;;;15.00;99.90;;;;;;5015709;28;20061;-78
2023/08/29 05:53:08;;;;;;;10.30;1.30;;;15.00;99.90;;;;;;5010902;28;20046;-78
2023/08/29 05:55:34;;;;;;;1.15;1.05;;;15.00;99.90;;;;;;5012648;28;20174;-77
2023/08/29 05:58:01;;;;;;;4.10;1.20;;;15.00;99.90;;;;;;5011320;28;20073;-77
2023/08/29 06:00:29;;;;;;;2.13;1.33;;;15.00;99.90;;;;;;5006308;28;20422;-77
2023/08/29 06:02:56;;;;;;;1.40;1.23;;;15.10;99.90;;;;;;5013099;28;20049;-77
2023/08/29 06:05:24;;;;;;;3.00;1.30;;;15.10;99.90;;;;;;5016786;28;20038;-77
2023/08/29 06:07:51;;;;;;;1.95;1.48;;;15.10;99.90;;;;;;5008520;28;20490;-78
2023/08/29 06:10:22;;;;;;;2.50;1.55;;;15.10;99.90;;;;;;5011260;28;20073;-76
2023/08/29 06:12:49;;;;;;;2.10;1.40;;;15.20;99.90;;;;;;4995139;28;20108;-77
2023/08/29 06:15:16;;;;;;;3.28;1.70;;;15.20;99.90;;;;;;5003535;28;20112;-77
2023/08/29 06:17:42;;;;;;;3.20;1.60;;;15.20;99.90;;;;;;5011207;28;20046;-77
2023/08/29 06:20:11;;;;;;;1.90;1.25;;;15.30;99.90;;;;;;5017174;28;20528;-77
2023/08/29 06:22:38;;;;;;;2.45;1.50;;;15.30;99.90;;;;;;5009397;28;20429;-79
2023/08/29 06:25:05;;;;;;;2.40;1.42;;;15.30;99.90;;;;;;5015803;28;20047;-78
2023/08/29 06:27:33;;;;;;;2.42;1.90;;;15.30;99.90;;;;;;5021087;28;20081;-78
2023/08/29 06:30:00;;;;;;;2.70;1.63;;;15.40;99.90;;;;;;5004021;28;20054;-77
2023/08/29 06:32:26;;;;;;;2.22;2.03;;;15.40;99.90;;;;;;5013508;28;20057;-76
2023/08/29 06:34:53;;;;;;;1.70;1.33;;;15.40;99.90;;;;;;5016768;28;20085;-77
2023/08/29 06:37:20;;;;;;;1.75;1.65;;;15.50;99.90;;;;;;5009411;28;20045;-78
2023/08/29 06:39:47;;;;;;;4.57;1.70;;;15.50;99.90;;;;;;5010991;28;20057;-78
2023/08/29 06:42:14;;;;;;;1.77;1.60;;;15.50;99.90;;;;;;5016947;28;20077;-77
2023/08/29 06:44:41;;;;;;;2.60;1.77;;;15.60;99.90;;;;;;4985584;28;20097;-77
2023/08/29 06:47:07;;;;;;;2.92;1.70;;;15.60;99.90;;;;;;5013471;28;20085;-78
2023/08/29 06:49:34;;;;;;;2.85;1.77;;;15.60;99.90;;;;;;5015005;28;20049;-78
2023/08/29 06:52:01;;;;;;;2.10;1.60;;;15.70;99.90;;;;;;4992363;28;20472;-78
2023/08/29 06:54:28;;;;;;;2.05;1.80;;;15.70;99.90;;;;;;5008915;28;20049;-78
2023/08/29 06:56:57;;;;;;;2.55;1.67;;;15.80;99.90;;;;;;5016311;28;20060;-79
2023/08/29 06:59:24;;;;;;;7.00;1.67;;;15.80;99.90;;;;;;5009430;28;20041;-78
2023/08/29 07:01:50;;;;;;;3.17;1.50;;;15.80;99.90;;;;;;4995262;28;20073;-78
2023/08/29 07:04:19;;;;;;;1.70;1.48;;;15.80;99.90;;;;;;4998503;28;20073;-78
2023/08/29 07:06:46;;;;;;;2.28;1.67;;;15.90;99.90;;;;;;5011190;28;20046;-78
2023/08/29 07:09:12;;;;;;;2.97;1.80;;;15.90;99.90;;;;;;5009479;28;20572;-77
2023/08/29 07:11:39;;;;;;;2.88;2.08;;;15.90;99.90;;;;;;5011664;28;20081;-77
2023/08/29 07:14:06;;;;;;;1.98;1.75;;;15.90;99.90;;;;;;5012718;28;20498;-78
2023/08/29 07:16:32;;;;;;;2.03;1.83;;;16.00;99.90;;;;;;5011172;28;20050;-77
2023/08/29 07:18:59;;;;;;;2.83;2.00;;;16.00;99.90;;;;;;5017429;28;20129;-78
2023/08/29 07:21:27;;;;;;;3.10;2.10;;;16.00;99.90;;;;;;5016083;28;20050;-79
2023/08/29 07:23:54;;;;;;;2.10;1.90;;;16.00;99.90;;;;;;5008626;28;20042;-78
2023/08/29 07:26:21;;;;;;;2.15;1.60;;;16.00;99.90;;;;;;5013207;28;20100;-77
2023/08/29 07:28:48;;;;;;;2.65;1.75;;;16.00;99.90;;;;;;5019245;28;20057;-79
2023/08/29 07:31:14;;;;;;;2.88;1.73;;;16.10;99.90;;;;;;5012759;28;20108;-78
2023/08/29 07:33:41;;;;;;;2.72;1.73;;;16.10;99.90;;;;;;5014488;28;20685;-78
2023/08/29 07:36:08;;;;;;;2.58;2.00;;;16.10;99.90;;;;;;5011604;28;20050;-78
2023/08/29 07:38:35;;;;;;;2.10;1.75;;;16.20;99.90;;;;;;5006379;28;20050;-78
2023/08/29 07:41:02;;;;;;;3.35;1.52;;;16.20;99.90;;;;;;4995385;28;20081;-78
2023/08/29 07:43:29;;;;;;;3.30;1.60;;;16.30;99.90;;;;;;5019439;28;20042;-78
2023/08/29 07:45:56;;;;;;;1.90;1.73;;;16.30;99.90;;;;;;5007846;28;20093;-78
2023/08/29 07:48:22;;;;;;;2.20;2.00;;;16.40;99.90;;;;;;5014277;28;20529;-78
2023/08/29 07:50:49;;;;;;;3.33;2.08;;;16.40;99.90;;;;;;5019975;28;20068;-78
2023/08/29 07:53:16;;;;;;;4.63;2.03;;;16.40;99.90;;;;;;5012973;28;20066;-78
2023/08/29 07:55:43;;;;;;;2.38;2.00;;;16.50;99.90;;;;;;5022642;28;20119;-78
2023/08/29 07:58:09;;;;;;;3.33;1.70;;;16.50;99.90;;;;;;5017725;28;20089;-77
2023/08/29 08:00:36;;;;;;;3.03;1.88;;;16.50;99.90;;;;;;5007762;28;20049;-77
2023/08/29 08:03:03;;;;;;;2.83;1.95;;;16.50;99.90;;;;;;5007315;28;20046;-77
2023/08/29 08:05:30;;;;;;;1.52;1.42;;;16.50;99.90;;;;;;5015811;28;20128;-78
2023/08/29 08:07:56;;;;;;;2.40;2.17;;;16.50;99.90;;;;;;4983175;28;20132;-77
2023/08/29 08:10:23;;;;;;;3.42;2.00;;;16.60;99.90;;;;;;5008342;28;20041;-77
2023/08/29 08:12:50;;;;;;;3.05;1.70;;;16.60;99.90;;;;;;5017317;28;20045;-79
2023/08/29 08:15:17;;;;;;;3.78;2.42;;;16.60;99.90;;;;;;5012403;28;20050;-78
2023/08/29 08:17:46;;;;;;;3.17;1.73;;;16.60;99.90;;;;;;5009897;28;20046;-78
2023/08/29 08:20:13;;;;;;;3.20;1.98;;;16.70;99.90;;;;;;4999623;28;20120;-79
2023/08/29 08:22:41;;;;;;;5.03;2.05;;;16.70;99.90;;;;;;5008024;28;20042;-78
2023/08/29 08:25:09;;;;;;;1.70;1.60;;;16.70;99.90;;;;;;5005994;28;20046;-78
2023/08/29 08:27:36;;;;;;;5.38;2.00;;;16.70;99.90;;;;;;5015113;28;20111;-79
2023/08/29 08:30:05;;;;;;;3.20;1.80;;;16.70;99.90;;;;;;4992617;28;20058;-78
2023/08/29 08:32:32;;;;;;;3.35;1.75;;;16.80;99.90;;;;;;5009167;28;20107;-79
2023/08/29 08:34:59;;;;;;;1.95;1.75;;;16.80;99.90;;;;;;5014758;28;20119;-79
2023/08/29 08:37:26;;;;;;;1.90;1.63;;;16.80;99.90;;;;;;4987201;28;20700;-77
2023/08/29 08:39:53;;;;;;;2.08;1.63;;;16.90;99.90;;;;;;5009221;28;20061;-78
2023/08/29 08:42:20;;;;;;;3.47;1.80;;;16.90;99.90;;;;;;5015828;28;20041;-79
2023/08/29 08:44:47;;;;;;;3.00;1.63;;;17.00;99.90;;;;;;5011148;28;20107;-78
2023/08/29 08:47:14;;;;;;;4.82;1.50;;;17.00;99.90;;;;;;5007849;28;20050;-79
2023/08/29 08:49:41;;;;;;;1.90;1.60;;;17.10;99.90;;;;;;5015199;28;20050;-79
2023/08/29 08:52:10;;;;;;;1.98;1.52;;;17.10;99.90;;;;;;5012383;28;20049;-78
2023/08/29 08:54:38;;;;;;;4.27;1.67;;;17.20;99.90;;;;;;5008257;28;20104;-79
2023/08/29 08:57:05;;;;;;;2.50;1.70;;;17.20;99.90;;;;;;5014304;28;20339;-79
2023/08/29 08:59:32;;;;;;;1.88;1.52;;;17.20;99.90;;;;;;5010671;28;20525;-78
2023/08/29 09:01:59;;;;;;;2.72;1.77;;;17.30;99.90;;;;;;5008212;28;20046;-79
2023/08/29 09:04:25;;;;;;;3.42;1.75;;;17.30;99.90;;;;;;5012842;28;20498;-79
2023/08/29 09:06:52;;;;;;;2.17;1.48;;;17.40;99.90;;;;;;5014555;28;20433;-79
2023/08/29 09:09:23;;;;;;;2.15;1.40;;;17.50;99.90;;;;;;5014311;28;20086;-79
2023/08/29 09:11:57;;;;;;;1.90;1.70;;;17.60;99.90;;;;;;5012139;28;20041;-79
2023/08/29 09:14:24;;;;;;;1.75;1.40;;;17.70;99.90;;;;;;5012533;28;20108;-80
2023/08/29 09:17:00;;;;;;;3.15;1.90;;;17.80;99.90;;;;;;5006949;28;20050;-79
2023/08/29 09:19:33;;;;;;;1.73;1.63;;;17.80;99.90;;;;;;4995796;28;20042;-78
2023/08/29 09:22:00;;;;;;;1.42;1.33;;;17.90;99.90;;;;;;5012984;28;20046;-78
2023/08/29 09:24:34;;;;;;;1.85;1.55;;;18.00;99.90;;;;;;5012681;28;20626;-79
2023/08/29 09:27:06;;;;;;;1.65;1.33;;;18.10;99.90;;;;;;5010244;28;20046;-79
2023/08/29 09:29:33;;;;;;;3.42;1.42;;;18.20;99.90;;;;;;5014556;28;20050;-79
2023/08/29 09:32:14;;;;;;;3.38;1.52;;;18.30;99.90;;;;;;5005717;28;20050;-78
2023/08/29 09:34:42;;;;;;;2.33;1.67;;;18.40;99.90;;;;;;4993902;28;20097;-77
2023/08/29 09:37:12;;;;;;;2.00;1.38;;;18.50;99.90;;;;;;5015467;28;20108;-79
2023/08/29 09:39:39;;;;;;;3.30;1.60;;;18.60;99.90;;;;;;5012255;28;20053;-78
2023/08/29 09:42:07;;;;;;;1.50;1.40;;;18.60;99.90;;;;;;5011364;28;20080;-79
2023/08/29 09:44:38;;;;;;;2.38;1.58;;;18.70;99.90;;;;;;5011160;28;20101;-79
2023/08/29 09:47:05;;;;;;;1.77;1.63;;;18.70;99.90;;;;;;5002117;28;20050;-79
2023/08/29 09:49:42;;;;;;;2.38;1.83;;;18.80;99.90;;;;;;5009997;28;20050;-78
2023/08/29 09:52:09;;;;;;;2.47;1.80;;;18.90;99.90;;;;;;5013987;28;20510;-78
2023/08/29 09:54:51;;;;;;;2.47;1.52;;;18.90;99.90;;;;;;5009821;28;20042;-78
2023/08/29 09:57:19;;;;;;;1.67;1.52;;;19.00;99.90;;;;;;5010343;28;20100;-78
2023/08/29 09:59:47;;;;;;;3.40;1.90;;;19.00;99.90;;;;;;5013183;28;20047;-79
2023/08/29 10:02:14;;;;;;;2.15;1.80;;;19.10;99.90;;;;;;5006730;28;20054;-79
2023/08/29 10:05:06;;;;;;;2.35;1.80;;;19.20;99.90;;;;;;5011209;28;20417;-79
2023/08/29 10:07:42;;;;;;;2.42;2.20;;;19.30;99.90;;;;;;5013754;28;20058;-79
2023/08/29 10:10:10;;;;;;;2.80;1.98;;;19.40;99.90;;;;;;5005329;28;20081;-78
2023/08/29 10:12:40;;;;;;;2.00;1.80;;;19.40;99.90;;;;;;5017889;28;20107;-79
2023/08/29 10:15:08;;;;;;;2.63;2.42;;;19.50;99.90;;;;;;5017240;28;20050;-79
2023/08/29 10:17:36;;;;;;;2.75;2.55;;;19.60;99.90;;;;;;5010325;28;20053;-80
2023/08/29 10:20:09;;;;;;;3.33;2.55;;;19.60;99.90;;;;;;5000441;28;20133;-79
2023/08/29 10:22:38;;;;;;;2.55;1.90;;;19.70;99.90;;;;;;5017965;28;20049;-79
2023/08/29 10:25:06;;;;;;;4.07;2.78;;;19.80;99.90;;;;;;5009572;28;20047;-79
2023/08/29 10:27:34;;;;;;;5.07;3.08;;;19.80;99.90;;;;;;5014921;28;20141;-79
2023/08/29 10:30:02;;;;;;;2.97;2.67;;;19.80;99.90;;;;;;5012450;28;20081;-79
2023/08/29 10:32:30;;;;;;;3.55;2.80;;;19.90;99.90;;;;;;5010353;28;20054;-80
2023/08/29 10:34:57;;;;;;;4.50;3.10;;;19.90;99.90;;;;;;5026907;28;20046;-78
2023/08/29 10:37:25;;;;;;;4.13;3.25;;;19.90;99.90;;;;;;5027686;28;20046;-79
2023/08/29 10:39:52;;;;;;;5.78;3.00;;;19.90;99.90;;;;;;5024837;28;20026;-78
2023/08/29 10:42:19;;;;;;;4.40;3.03;;;19.90;99.90;;;;;;5012085;28;20128;-79
2023/08/29 10:44:47;;;;;;;4.65;3.33;;;20.00;99.90;;;;;;5012489;28;20046;-78
2023/08/29 10:47:30;;;;;;;4.13;3.35;;;20.00;99.90;;;;;;5002008;28;20046;-78
2023/08/29 10:49:59;;;;;;;4.45;3.08;;;20.10;99.90;;;;;;5009423;28;20068;-78
2023/08/29 10:52:42;;;;;;;4.35;3.35;;;20.10;99.90;;;;;;5013525;28;20050;-78
2023/08/29 10:55:27;;;;;;;5.72;3.40;;;20.20;99.90;;;;;;5007465;28;20069;-79
2023/08/29 10:58:00;;;;;;;5.43;4.00;;;20.20;99.90;;;;;;5013603;28;20057;-79
2023/08/29 11:00:52;;;;;;;8.10;3.25;;;20.30;99.90;;;;;;5009821;28;20461;-79
2023/08/29 11:03:56;;;;;;;4.07;2.85;;;20.30;99.90;;;;;;5013458;28;20050;-79
2023/08/29 11:06:47;;;;;;;4.68;3.20;;;20.40;99.90;;;;;;5016187;28;20038;-79
2023/08/29 11:09:24;;;;;;;4.70;3.25;;;20.50;99.90;;;;;;5005920;28;20042;-79
2023/08/29 11:12:12;;;;;;;4.43;3.20;;;20.60;99.90;;;;;;5011738;28;20450;-79
2023/08/29 11:14:52;;;;;;;3.90;3.50;;;20.70;99.90;;;;;;5020231;28;20050;-79
2023/08/29 11:17:23;;;;;;;4.40;3.08;;;20.80;99.90;;;;;;5016994;28;20050;-78
2023/08/29 11:19:52;;;;;;;3.17;2.88;;;20.80;99.90;;;;;;5026372;28;20056;-78
2023/08/29 11:22:25;;;;;;;5.60;2.55;;;20.90;99.90;;;;;;5011668;28;20081;-79
2023/08/29 11:24:56;;;;;;;4.05;2.83;;;21.00;99.90;;;;;;5005232;28;20100;-79
2023/08/29 11:27:30;;;;;;;4.28;3.10;;;21.10;99.90;;;;;;5011841;28;20105;-79
2023/08/29 11:30:00;;;;;;;8.50;3.05;;;21.10;99.90;;;;;;5017651;28;20042;-78
2023/08/29 11:32:51;;;;;;;3.63;2.90;;;21.10;99.90;;;;;;5013247;28;20126;-79
2023/08/29 11:35:18;;;;;;;3.17;2.47;;;21.20;99.90;;;;;;5011952;28;20053;-79
2023/08/29 11:37:45;;;;;;;5.35;2.85;;;21.30;99.90;;;;;;5015206;28;20052;-79
2023/08/29 11:40:12;;;;;;;3.15;2.72;;;21.30;99.90;;;;;;5006602;28;20058;-79
2023/08/29 11:42:59;;;;;;;3.35;3.05;;;21.30;99.90;;;;;;5012141;28;20046;-79
2023/08/29 11:45:45;;;;;;;4.25;2.90;;;21.40;99.90;;;;;;5014420;28;20535;-81
2023/08/29 11:48:23;;;;;;;3.75;2.55;;;21.40;99.90;;;;;;5008651;28;20092;-79
2023/08/29 11:50:55;;;;;;;3.50;2.70;;;21.40;99.90;;;;;;5013464;28;20046;-79
2023/08/29 11:53:31;;;;;;;3.88;2.53;;;21.40;99.90;;;;;;5014241;28;20101;-79
2023/08/29 11:55:59;;;;;;;4.32;2.83;;;21.40;99.90;;;;;;5007361;28;20077;-78
2023/08/29 11:58:36;;;;;;;5.68;3.03;;;21.30;99.90;;;;;;5012453;28;20107;-79
2023/08/29 12:01:04;;;;;;;3.10;2.80;;;21.30;99.90;;;;;;5011031;28;20461;-79
2023/08/29 12:03:36;;;;;;;4.15;2.38;;;21.30;99.90;;;;;;5010889;28;20073;-78
2023/08/29 12:06:09;;;;;;;4.63;2.35;;;21.20;99.90;;;;;;5014072;28;20038;-79
2023/08/29 12:08:44;;;;;;;4.22;2.70;;;21.20;99.90;;;;;;5014015;28;20054;-78
2023/08/29 12:11:13;;;;;;;6.55;2.63;;;21.20;99.90;;;;;;5008093;28;20414;-78
2023/08/29 12:13:43;;;;;;;5.18;2.70;;;21.30;99.90;;;;;;5011533;28;20046;-79
2023/08/29 12:16:14;;;;;;;3.95;2.55;;;21.30;99.90;;;;;;5015421;28;20042;-78
2023/08/29 12:18:42;;;;;;;3.38;2.63;;;21.40;99.90;;;;;;5010121;28;20128;-79
2023/08/29 12:21:20;;;;;;;5.07;2.35;;;21.40;99.90;;;;;;5011396;28;20054;-79
2023/08/29 12:23:46;;;;;;;3.20;2.53;;;21.60;99.90;;;;;;5009152;28;20525;-78
2023/08/29 12:26:16;;;;;;;4.28;2.50;;;21.60;99.90;;;;;;5004843;28;20080;-79
2023/08/29 12:28:43;;;;;;;2.40;2.17;;;21.70;99.90;;;;;;5014745;28;20076;-79
2023/08/29 12:31:12;;;;;;;3.15;2.08;;;21.80;99.90;;;;;;5014051;28;20046;-79
2023/08/29 12:33:38;;;;;;;3.38;2.55;;;21.80;99.90;;;;;;5007771;28;20114;-79
2023/08/29 12:36:05;;;;;;;5.25;2.10;;;21.80;99.90;;;;;;5012304;28;20092;-79
2023/08/29 12:38:32;;;;;;;2.85;2.17;;;21.90;99.90;;;;;;5011318;28;20062;-79
2023/08/29 12:40:59;;;;;;;3.30;2.13;;;21.90;99.90;;;;;;5008176;28;20054;-79
2023/08/29 12:43:26;;;;;;;3.08;2.30;;;21.90;99.90;;;;;;5013272;28;20069;-79
2023/08/29 12:45:53;;;;;;;3.08;2.35;;;21.90;99.90;;;;;;5014766;28;20049;-79
2023/08/29 12:48:26;;;;;;;4.13;2.45;;;21.90;99.90;;;;;;5006503;28;20065;-78
2023/08/29 12:50:53;;;;;;;2.33;2.13;;;21.90;99.90;;;;;;5010344;28;20127;-79
2023/08/29 12:53:20;;;;;;;4.65;3.00;;;21.80;99.90;;;;;;5013869;28;20074;-78
2023/08/29 12:55:47;;;;;;;3.33;2.35;;;21.80;99.90;;;;;;5005413;28;20085;-78